createdAt,value
2022-10-03T00:00:12.350Z,7.47
2022-10-03T00:02:58.960Z,7.30
2022-10-03T00:05:42.340Z,7.20
2022-10-03T00:08:22.176Z,6.20
2022-10-03T00:11:03.039Z,6.43
2022-10-03T00:13:42.040Z,5.73
2022-10-03T00:16:16.918Z,6.63
2022-10-03T00:18:57.525Z,6.67
2022-10-03T00:21:50.529Z,6.10
2022-10-03T00:24:28.875Z,6.07
2022-10-03T00:27:07.152Z,6.57
2022-10-03T00:30:06.133Z,6.53
2022-10-03T00:32:48.180Z,6.03
2022-10-03T00:35:31.664Z,6.03
2022-10-03T00:38:17.575Z,5.60
2022-10-03T00:41:13.135Z,7.20
2022-10-03T00:44:08.187Z,4.30
2022-10-03T00:46:58.153Z,5.53
2022-10-03T00:50:00.405Z,4.77
2022-10-03T00:52:47.324Z,5.03
2022-10-03T00:55:24.902Z,6.07
2022-10-03T00:58:04.847Z,5.40
2022-10-03T01:00:34.675Z,6.47
2022-10-03T01:03:33.766Z,6.13
2022-10-03T01:06:27.281Z,6.30
2022-10-03T01:09:21.410Z,6.00
2022-10-03T01:12:00.388Z,5.40
2022-10-03T01:14:50.424Z,5.87
2022-10-03T01:17:29.191Z,6.07
2022-10-03T01:20:08.728Z,5.00
2022-10-03T01:23:03.711Z,5.80
2022-10-03T01:25:40.955Z,6.40
2022-10-03T01:28:57.895Z,6.53
2022-10-03T01:31:34.499Z,6.63
2022-10-03T01:34:12.416Z,8.00
2022-10-03T01:36:50.013Z,7.20
2022-10-03T01:39:28.000Z,6.07
2022-10-03T01:42:02.941Z,5.70
2022-10-03T01:44:42.627Z,6.83
2022-10-03T01:47:23.533Z,6.57
2022-10-03T01:49:59.463Z,6.67
2022-10-03T01:52:39.085Z,5.43
2022-10-03T01:55:16.993Z,4.67
2022-10-03T01:57:53.643Z,6.77
2022-10-03T02:00:26.251Z,6.63
2022-10-03T02:03:03.997Z,7.47
2022-10-03T02:05:42.949Z,9.17
2022-10-03T02:08:25.089Z,10.23
2022-10-03T02:11:01.667Z,8.37
2022-10-03T02:13:44.517Z,8.63
2022-10-03T02:16:24.519Z,9.30
2022-10-03T02:18:59.927Z,9.50
2022-10-03T02:21:32.256Z,9.90
2022-10-03T02:24:22.517Z,9.80
2022-10-03T02:27:35.617Z,10.37
2022-10-03T02:30:11.650Z,9.23
2022-10-03T02:33:34.679Z,9.73
2022-10-03T02:36:40.872Z,10.57
2022-10-03T02:39:59.981Z,10.37
2022-10-03T02:43:07.033Z,9.27
2022-10-03T02:46:06.178Z,9.57
2022-10-03T02:48:58.172Z,8.13
2022-10-03T02:52:06.214Z,7.60
2022-10-03T02:55:00.081Z,10.20
2022-10-03T02:58:06.015Z,9.23
2022-10-03T03:00:49.384Z,7.93
2022-10-03T03:03:54.187Z,9.10
2022-10-03T03:06:53.979Z,8.37
2022-10-03T03:10:08.809Z,9.90
2022-10-03T03:13:08.859Z,9.83
2022-10-03T03:16:15.455Z,9.53
2022-10-03T03:18:48.283Z,8.43
2022-10-03T03:21:34.383Z,8.67
2022-10-03T03:24:46.888Z,8.87
2022-10-03T03:27:38.045Z,8.70
2022-10-03T03:30:11.722Z,8.43
2022-10-03T03:32:58.897Z,7.37
2022-10-03T03:35:41.259Z,8.27
2022-10-03T03:38:25.705Z,7.07
2022-10-03T03:41:07.178Z,7.63
2022-10-03T03:43:49.442Z,7.70
2022-10-03T03:46:30.002Z,7.93
2022-10-03T03:49:20.443Z,7.00
2022-10-03T03:52:02.959Z,6.47
2022-10-03T03:55:06.572Z,6.73
2022-10-03T03:57:51.941Z,8.10
2022-10-03T04:00:31.394Z,11.77
2022-10-03T04:03:21.757Z,7.93
2022-10-03T04:06:13.528Z,6.70
2022-10-03T04:09:01.004Z,6.10
2022-10-03T04:11:39.119Z,6.53
2022-10-03T04:14:41.150Z,6.77
2022-10-03T04:17:44.060Z,7.70
2022-10-03T04:20:22.307Z,7.13
2022-10-03T04:23:08.431Z,7.10
2022-10-03T04:26:02.426Z,8.10
2022-10-03T04:28:53.525Z,8.57
2022-10-03T04:31:42.133Z,7.13
2022-10-03T04:34:26.020Z,7.37
2022-10-03T04:37:31.021Z,8.97
2022-10-03T04:40:12.905Z,7.97
2022-10-03T04:42:52.570Z,7.13
2022-10-03T04:45:40.206Z,7.33
2022-10-03T04:48:18.039Z,6.50
2022-10-03T04:51:00.289Z,6.97
2022-10-03T04:53:42.979Z,8.63
2022-10-03T04:56:24.965Z,10.13
2022-10-03T04:59:04.866Z,9.00
2022-10-03T05:01:44.713Z,8.63
2022-10-03T05:04:27.140Z,9.07
2022-10-03T05:07:06.312Z,10.97
2022-10-03T05:09:41.375Z,11.77
2022-10-03T05:12:17.975Z,12.43
2022-10-03T05:15:07.498Z,13.07
2022-10-03T05:17:47.944Z,12.53
2022-10-03T05:20:47.188Z,12.70
2022-10-03T05:23:31.406Z,8.73
2022-10-03T05:26:39.801Z,9.97
2022-10-03T05:29:06.470Z,11.10
2022-10-03T05:31:47.760Z,10.67
2022-10-03T05:34:30.933Z,9.07
2022-10-03T05:37:24.591Z,10.23
2022-10-03T05:40:01.178Z,8.70
2022-10-03T05:42:55.562Z,10.40
2022-10-03T05:45:31.868Z,9.80
2022-10-03T05:48:15.029Z,9.70
2022-10-03T05:51:18.376Z,11.07
2022-10-03T05:54:28.589Z,11.60
2022-10-03T05:57:17.801Z,11.00
2022-10-03T06:00:10.882Z,11.30
2022-10-03T06:03:06.470Z,11.70
2022-10-03T06:06:08.062Z,11.90
2022-10-03T06:09:26.965Z,11.10
2022-10-03T06:12:11.305Z,11.97
2022-10-03T06:15:12.571Z,12.43
2022-10-03T06:17:58.082Z,13.33
2022-10-03T06:21:06.286Z,13.50
2022-10-03T06:24:15.554Z,14.13
2022-10-03T06:27:15.154Z,13.93
2022-10-03T06:30:20.252Z,15.80
2022-10-03T06:33:33.138Z,14.37
2022-10-03T06:36:36.878Z,17.10
2022-10-03T06:40:10.071Z,17.13
2022-10-03T06:43:00.213Z,18.07
2022-10-03T06:46:19.602Z,17.97
2022-10-03T06:49:25.661Z,16.77
2022-10-03T06:52:20.140Z,17.40
2022-10-03T06:55:30.284Z,17.87
2022-10-03T06:58:28.786Z,18.37
2022-10-03T07:01:20.315Z,16.93
2022-10-03T07:04:19.058Z,17.77
2022-10-03T07:07:07.547Z,18.33
2022-10-03T07:10:01.232Z,16.87
2022-10-03T07:12:52.579Z,18.10
2022-10-03T07:16:08.818Z,17.33
2022-10-03T07:19:04.498Z,18.33
2022-10-03T07:22:18.800Z,19.20
2022-10-03T07:25:25.475Z,18.33
2022-10-03T07:28:24.777Z,18.33
2022-10-03T07:31:04.065Z,19.07
2022-10-03T07:34:07.607Z,19.77
2022-10-03T07:37:20.762Z,18.97
2022-10-03T07:40:30.748Z,18.80
2022-10-03T07:43:35.326Z,18.03
2022-10-03T07:46:41.712Z,18.83
2022-10-03T07:49:33.308Z,19.30
2022-10-03T07:52:30.620Z,17.83
2022-10-03T07:55:28.786Z,17.33
2022-10-03T07:58:45.697Z,20.07
2022-10-03T08:01:41.955Z,17.83
2022-10-03T08:04:45.768Z,18.17
2022-10-03T08:07:32.667Z,17.53
2022-10-03T08:10:18.855Z,17.23
2022-10-03T08:13:25.041Z,15.93
2022-10-03T08:16:18.539Z,18.33
2022-10-03T08:19:15.241Z,16.77
2022-10-03T08:22:05.422Z,16.23
2022-10-03T08:25:14.716Z,16.57
2022-10-03T08:27:56.923Z,17.37
2022-10-03T08:30:28.916Z,17.30
2022-10-03T08:33:16.689Z,15.80
2022-10-03T08:36:20.297Z,16.27
2022-10-03T08:39:01.723Z,16.63
2022-10-03T08:42:00.621Z,16.47
2022-10-03T08:45:11.143Z,14.90
2022-10-03T08:48:31.771Z,14.90
2022-10-03T08:51:41.729Z,13.20
2022-10-03T08:54:27.910Z,13.57
2022-10-03T08:57:18.974Z,13.43
2022-10-03T09:00:15.304Z,13.17
2022-10-03T09:03:34.274Z,11.70
2022-10-03T09:07:12.100Z,12.03
2022-10-03T09:10:14.047Z,11.93
2022-10-03T09:13:09.596Z,10.90
2022-10-03T09:16:20.944Z,10.10
2022-10-03T09:19:18.756Z,9.73
2022-10-03T09:22:09.665Z,9.37
2022-10-03T09:25:20.366Z,9.37
2022-10-03T09:28:31.677Z,9.30
2022-10-03T09:31:12.822Z,8.53
2022-10-03T09:34:17.414Z,8.07
2022-10-03T09:37:40.011Z,6.77
2022-10-03T09:40:31.423Z,6.60
2022-10-03T09:43:41.714Z,7.27
2022-10-03T09:47:10.255Z,7.40
2022-10-03T09:50:19.499Z,7.47
2022-10-03T09:53:13.303Z,7.13
2022-10-03T09:56:01.786Z,7.63
2022-10-03T09:59:05.489Z,6.53
2022-10-03T10:01:41.632Z,5.10
2022-10-03T10:05:01.462Z,4.77
2022-10-03T10:08:12.594Z,4.63
2022-10-03T10:11:04.798Z,4.67
2022-10-03T10:14:11.127Z,4.70
2022-10-03T10:16:55.086Z,4.60
2022-10-03T10:19:47.221Z,4.60
2022-10-03T10:23:08.156Z,4.83
2022-10-03T10:26:21.493Z,4.73
2022-10-03T10:29:18.618Z,3.60
2022-10-03T10:32:36.054Z,3.87
2022-10-03T10:35:59.938Z,3.40
2022-10-03T10:39:10.792Z,3.43
2022-10-03T10:42:43.550Z,3.23
2022-10-03T10:45:57.065Z,3.33
2022-10-03T10:49:18.924Z,3.30
2022-10-03T10:52:26.909Z,2.70
2022-10-03T10:55:45.966Z,2.67
2022-10-03T10:58:47.034Z,2.63
2022-10-03T11:01:53.050Z,3.40
2022-10-03T11:05:09.487Z,2.80
2022-10-03T11:08:19.229Z,2.83
2022-10-03T11:11:07.078Z,2.87
2022-10-03T11:14:10.868Z,3.00
2022-10-03T11:17:16.033Z,3.23
2022-10-03T11:20:34.209Z,3.37
2022-10-03T11:23:39.570Z,2.40
2022-10-03T11:27:01.969Z,2.23
2022-10-03T11:30:18.816Z,1.77
2022-10-03T11:33:21.439Z,2.13
2022-10-03T11:36:34.542Z,2.07
2022-10-03T11:39:06.165Z,2.50
2022-10-03T11:41:52.557Z,2.10
2022-10-03T11:44:24.627Z,2.17
2022-10-03T11:47:03.546Z,2.23
2022-10-03T11:50:00.087Z,2.90
2022-10-03T11:52:34.513Z,3.50
2022-10-03T11:55:21.351Z,2.83
2022-10-03T11:58:01.923Z,2.57
2022-10-03T12:00:37.379Z,2.57
2022-10-03T12:03:19.917Z,2.77
2022-10-03T12:06:17.819Z,2.63
2022-10-03T12:09:00.590Z,2.70
2022-10-03T12:11:34.215Z,2.10
2022-10-03T12:14:22.202Z,2.57
2022-10-03T12:17:05.495Z,2.80
2022-10-03T12:19:42.740Z,2.40
2022-10-03T12:22:24.106Z,2.17
2022-10-03T12:25:02.514Z,2.10
2022-10-03T12:27:39.622Z,2.23
2022-10-03T12:30:16.430Z,2.23
2022-10-03T12:33:00.929Z,2.33
2022-10-03T12:35:42.120Z,3.13
2022-10-03T12:38:27.428Z,2.43
2022-10-03T12:41:08.280Z,2.40
2022-10-03T12:43:50.710Z,2.33
2022-10-03T12:46:31.879Z,2.20
2022-10-03T12:49:05.015Z,3.33
2022-10-03T12:51:53.206Z,2.67
2022-10-03T12:54:52.897Z,2.93
2022-10-03T12:57:54.918Z,2.53
2022-10-03T13:00:27.034Z,2.50
2022-10-03T13:03:15.239Z,2.47
2022-10-03T13:06:07.478Z,2.73
2022-10-03T13:09:01.340Z,2.60
2022-10-03T13:11:46.045Z,2.30
2022-10-03T13:14:29.449Z,2.10
2022-10-03T13:17:10.185Z,2.50
2022-10-03T13:19:49.758Z,2.17
2022-10-03T13:22:32.529Z,2.50
2022-10-03T13:25:05.489Z,2.90
2022-10-03T13:27:42.366Z,2.20
2022-10-03T13:30:21.361Z,2.80
2022-10-03T13:32:56.108Z,2.07
2022-10-03T13:35:53.994Z,2.30
2022-10-03T13:38:46.301Z,2.20
2022-10-03T13:41:28.227Z,2.30
2022-10-03T13:44:00.769Z,2.57
2022-10-03T13:46:40.725Z,3.47
2022-10-03T13:49:19.035Z,2.80
2022-10-03T13:51:57.247Z,2.50
2022-10-03T13:54:48.061Z,2.53
2022-10-03T13:57:20.163Z,2.20
2022-10-03T14:00:04.841Z,2.20
2022-10-03T14:02:52.148Z,3.20
2022-10-03T14:05:43.322Z,2.23
2022-10-03T14:08:23.896Z,2.47
2022-10-03T14:11:07.707Z,2.63
2022-10-03T14:13:52.683Z,2.57
2022-10-03T14:16:28.383Z,2.80
2022-10-03T14:19:06.075Z,2.93
2022-10-03T14:22:09.778Z,2.47
2022-10-03T14:24:46.789Z,3.37
2022-10-03T14:27:49.226Z,2.37
2022-10-03T14:30:23.174Z,2.23
2022-10-03T14:33:10.999Z,2.63
2022-10-03T14:35:47.140Z,2.53
2022-10-03T14:38:48.573Z,2.70
2022-10-03T14:41:21.815Z,2.50
2022-10-03T14:43:53.382Z,2.50
2022-10-03T14:46:25.969Z,2.77
2022-10-03T14:48:59.967Z,2.83
2022-10-03T14:51:35.000Z,3.23
2022-10-03T14:54:08.541Z,2.30
2022-10-03T14:56:46.446Z,2.30
2022-10-03T14:59:20.636Z,2.80
2022-10-03T15:01:52.974Z,2.93
2022-10-03T15:04:33.755Z,2.20
2022-10-03T15:07:04.549Z,2.60
2022-10-03T15:09:43.488Z,2.50
2022-10-03T15:12:16.883Z,2.70
2022-10-03T15:14:50.841Z,2.83
2022-10-03T15:17:23.221Z,2.63
2022-10-03T15:19:55.504Z,2.70
2022-10-03T15:22:33.740Z,2.03
2022-10-03T15:25:08.119Z,2.63
2022-10-03T15:27:41.202Z,2.20
2022-10-03T15:30:22.464Z,2.77
2022-10-03T15:32:53.102Z,2.47
2022-10-03T15:35:27.431Z,2.20
2022-10-03T15:38:06.902Z,2.53
2022-10-03T15:40:39.821Z,2.53
2022-10-03T15:43:24.154Z,2.63
2022-10-03T15:45:53.423Z,2.00
2022-10-03T15:48:26.219Z,2.63
2022-10-03T15:50:58.548Z,3.10
2022-10-03T15:53:36.446Z,3.13
2022-10-03T15:56:15.211Z,1.70
2022-10-03T15:58:49.541Z,2.10
2022-10-03T16:01:22.183Z,2.53
2022-10-03T16:03:53.825Z,1.87
2022-10-03T16:06:26.212Z,2.23
2022-10-03T16:09:01.461Z,2.50
2022-10-03T16:11:35.066Z,1.80
2022-10-03T16:14:15.793Z,2.23
2022-10-03T16:16:49.540Z,2.30
2022-10-03T16:19:32.887Z,1.93
2022-10-03T16:22:25.884Z,2.57
2022-10-03T16:25:06.438Z,2.23
2022-10-03T16:27:38.612Z,1.97
2022-10-03T16:30:21.626Z,2.40
2022-10-03T16:32:58.239Z,2.77
2022-10-03T16:35:34.610Z,1.93
2022-10-03T16:38:06.859Z,2.23
2022-10-03T16:40:39.142Z,2.33
2022-10-03T16:43:11.590Z,2.20
2022-10-03T16:45:45.918Z,2.67
2022-10-03T16:48:38.164Z,2.77
2022-10-03T16:51:15.112Z,2.63
2022-10-03T16:53:45.050Z,2.93
2022-10-03T16:56:18.742Z,2.03
2022-10-03T16:58:54.071Z,2.20
2022-10-03T17:01:32.980Z,2.00
2022-10-03T17:04:16.893Z,2.67
2022-10-03T17:06:48.839Z,2.43
2022-10-03T17:09:26.334Z,2.37
2022-10-03T17:12:00.853Z,2.20
2022-10-03T17:14:35.715Z,3.00
2022-10-03T17:17:08.890Z,2.90
2022-10-03T17:19:42.595Z,3.00
2022-10-03T17:22:19.619Z,4.20
2022-10-03T17:24:54.056Z,3.07
2022-10-03T17:27:29.626Z,2.60
2022-10-03T17:30:03.244Z,3.13
2022-10-03T17:32:38.385Z,3.07
2022-10-03T17:35:15.453Z,3.00
2022-10-03T17:38:19.575Z,2.83
2022-10-03T17:41:00.257Z,3.20
2022-10-03T17:43:37.612Z,2.50
2022-10-03T17:46:13.869Z,2.90
2022-10-03T17:48:51.681Z,2.70
2022-10-03T17:51:32.651Z,3.40
2022-10-03T17:54:04.381Z,3.40
2022-10-03T17:56:35.058Z,3.50
2022-10-03T17:59:09.130Z,2.80
2022-10-03T18:01:43.130Z,3.27
2022-10-03T18:04:19.082Z,2.83
2022-10-03T18:06:50.695Z,3.30
2022-10-03T18:09:28.259Z,2.77
2022-10-03T18:12:12.603Z,3.23
2022-10-03T18:14:54.002Z,3.27
2022-10-03T18:17:32.538Z,3.50
2022-10-03T18:20:15.547Z,3.70
2022-10-03T18:22:49.135Z,3.47
2022-10-03T18:25:41.393Z,3.13
2022-10-03T18:28:18.622Z,3.00
2022-10-03T18:30:53.707Z,3.77
2022-10-03T18:33:29.248Z,4.13
2022-10-03T18:35:58.720Z,3.20
2022-10-03T18:38:30.685Z,3.93
2022-10-03T18:41:01.097Z,3.80
2022-10-03T18:43:33.740Z,3.93
2022-10-03T18:46:14.164Z,4.60
2022-10-03T18:49:09.132Z,3.90
2022-10-03T18:51:40.790Z,3.90
2022-10-03T18:54:26.382Z,4.30
2022-10-03T18:57:07.463Z,3.63
2022-10-03T18:59:45.270Z,3.73
2022-10-03T19:02:24.621Z,3.33
2022-10-03T19:04:56.947Z,3.20
2022-10-03T19:07:27.756Z,3.13
2022-10-03T19:10:31.729Z,3.17
2022-10-03T19:13:12.045Z,3.40
2022-10-03T19:15:51.416Z,3.13
2022-10-03T19:18:27.880Z,3.37
2022-10-03T19:21:00.187Z,3.37
2022-10-03T19:23:36.197Z,3.90
2022-10-03T19:26:11.100Z,3.20
2022-10-03T19:28:48.343Z,3.30
2022-10-03T19:31:22.849Z,3.77
2022-10-03T19:33:55.857Z,3.70
2022-10-03T19:36:29.047Z,4.33
2022-10-03T19:38:59.161Z,4.13
2022-10-03T19:41:31.973Z,3.20
2022-10-03T19:44:06.298Z,4.70
2022-10-03T19:46:59.180Z,3.40
2022-10-03T19:49:48.944Z,2.67
2022-10-03T19:52:26.807Z,3.77
2022-10-03T19:55:01.934Z,3.50
2022-10-03T19:57:40.455Z,3.10
2022-10-03T20:00:22.680Z,3.77
2022-10-03T20:02:57.179Z,3.37
2022-10-03T20:05:58.800Z,4.13
2022-10-03T20:08:36.609Z,4.00
2022-10-03T20:11:17.844Z,3.63
2022-10-03T20:13:49.107Z,3.77
2022-10-03T20:16:25.797Z,3.90
2022-10-03T20:18:58.083Z,3.40
2022-10-03T20:21:33.554Z,4.57
2022-10-03T20:24:03.430Z,4.07
2022-10-03T20:26:38.619Z,4.70
2022-10-03T20:29:33.446Z,4.20
2022-10-03T20:32:03.506Z,4.03
2022-10-03T20:34:34.835Z,3.97
2022-10-03T20:37:27.200Z,5.03
2022-10-03T20:40:04.234Z,6.03
2022-10-03T20:42:33.528Z,5.83
2022-10-03T20:45:05.349Z,4.53
2022-10-03T20:47:59.897Z,4.70
2022-10-03T20:50:34.442Z,4.93
2022-10-03T20:53:11.668Z,4.23
2022-10-03T20:55:49.434Z,6.50
2022-10-03T20:58:24.071Z,5.90
2022-10-03T21:00:59.391Z,5.70
2022-10-03T21:03:34.360Z,4.70
2022-10-03T21:06:05.682Z,5.10
2022-10-03T21:08:39.185Z,5.83
2022-10-03T21:11:20.741Z,5.03
2022-10-03T21:13:54.308Z,6.27
2022-10-03T21:16:25.525Z,5.53
2022-10-03T21:18:59.026Z,5.63
2022-10-03T21:21:31.475Z,5.40
2022-10-03T21:24:07.751Z,5.67
2022-10-03T21:26:46.459Z,5.17
2022-10-03T21:29:26.744Z,5.43
2022-10-03T21:32:08.806Z,5.90
2022-10-03T21:34:45.503Z,5.80
2022-10-03T21:37:19.646Z,6.27
2022-10-03T21:40:01.073Z,5.40
2022-10-03T21:42:35.399Z,6.10
2022-10-03T21:45:21.590Z,5.63
2022-10-03T21:47:55.346Z,5.97
2022-10-03T21:50:28.723Z,5.83
2022-10-03T21:53:16.006Z,6.87
2022-10-03T21:55:58.094Z,7.10
2022-10-03T21:58:50.917Z,6.33
2022-10-03T22:01:26.309Z,6.43
2022-10-03T22:04:01.592Z,7.40
2022-10-03T22:06:37.208Z,7.17
2022-10-03T22:09:15.611Z,6.50
2022-10-03T22:11:52.703Z,7.50
2022-10-03T22:14:31.885Z,7.50
2022-10-03T22:17:07.865Z,7.00
2022-10-03T22:19:41.106Z,6.47
2022-10-03T22:22:21.172Z,5.87
2022-10-03T22:24:59.569Z,5.43
2022-10-03T22:27:36.666Z,6.60
2022-10-03T22:30:08.438Z,7.33
2022-10-03T22:32:45.448Z,6.30
2022-10-03T22:35:28.535Z,6.10
2022-10-03T22:37:57.864Z,6.30
2022-10-03T22:40:27.474Z,8.37
2022-10-03T22:43:02.155Z,8.40
2022-10-03T22:45:36.615Z,8.40
2022-10-03T22:48:11.227Z,6.80
2022-10-03T22:50:42.342Z,8.87
2022-10-03T22:53:14.790Z,5.77
2022-10-03T22:55:49.818Z,5.93
2022-10-03T22:58:21.312Z,6.67
2022-10-03T23:00:52.935Z,7.23
2022-10-03T23:03:26.658Z,8.00
2022-10-03T23:06:12.261Z,8.10
2022-10-03T23:08:50.190Z,7.27
2022-10-03T23:11:24.502Z,8.20
2022-10-03T23:13:57.917Z,8.97
2022-10-03T23:16:51.798Z,8.30
2022-10-03T23:19:36.252Z,9.37
2022-10-03T23:22:07.748Z,8.13
2022-10-03T23:24:43.062Z,8.67
2022-10-03T23:27:37.902Z,7.60
2022-10-03T23:30:55.432Z,8.73
2022-10-03T23:33:51.274Z,9.23
2022-10-03T23:36:24.557Z,9.17
2022-10-03T23:38:59.627Z,10.27
2022-10-03T23:42:01.106Z,9.93
2022-10-03T23:44:36.871Z,8.83
2022-10-03T23:47:07.841Z,8.53
2022-10-03T23:49:40.769Z,9.87
2022-10-03T23:52:18.523Z,8.03
2022-10-03T23:54:49.324Z,8.37
2022-10-03T23:57:20.245Z,7.03
2022-10-03T23:59:50.148Z,7.83
